Airfield :
LOGIN :

Register | Disclaimer

   EN    FR    IT 

 










Legend :    VFR   Marginal VFR   IFR   Intensive IFR   Very Intensive IFR
Visi :
Ceiling :
>= 8 km
>= 3000ft
5 to 8 km
1000 to 3000 ft
1500m to 5 km
500 to 1000 ft
800 to 1500m
200 to 500 ft
< 800m
< 200 ft
Symbols :   Thunderstorms  Fog  Heavy snow  Heavy precipitations  Wind > 20 kt
SIGMETs :     Misc.  Thunderstorms  Icing  Turbulence  Mountain Waves  Volcanic Ashes






- Airport Elevation : 15 ft
- IATA code : GIB


LXGB - Gibraltar

CURRENT METAR :
  • 201019Z 22009KT CAVOK 24/17 Q1019 NOSIG RMK BLU BLU

EXPIRED METARs :
  • 200950Z 21008KT CAVOK 24/16 Q1019 NOSIG RMK BLU BLU
  • 200920Z 21010KT CAVOK 23/17 Q1019 NOSIG RMK BLU BLU
  • 200850Z 24007KT CAVOK 22/17 Q1019 NOSIG RMK BLU BLU
  • 200820Z 25010KT 9999 FEW025 BKN280 21/17 Q1019 NOSIG RMK BLU BLU
  • 200750Z 24009KT 9999 FEW025 SCT280 21/18 Q1019 NOSIG RMK BLU BLU

TAF TAF LXGB
Valid from the 20 at 09:00 until the 20 at 18:00 UTC


200735Z 2009/2018 25008KT 9999 FEW025
PROB30
TEMPO 2010/2016 22015KT 520002



MET'MAP, your aeronautical weather chart ! - Copyright ORBIFLY December 2007 - Disclaimer

ORBIFLY MET'MAP TEAM :

Programming & Development : Alexandra Zaïnal
Concept & original design : Baudouin d'Aumeries
Assistance for programming : Marc-Olivier Méhu
Technical & hardware support : Manuel Goepfert

Contact : metmap@orbifly.com




SOURCES & CREDITS :

   NOAA